createdAt,value
2022-11-20T10:57:12.981Z,7.599
2022-11-20T10:58:10.916Z,16.5
2022-11-20T10:59:10.823Z,15.60
2022-11-20T11:00:11.083Z,15.39
2022-11-20T11:01:11.228Z,15.60
2022-11-20T11:02:11.234Z,15.80
2022-11-20T11:03:11.164Z,16.70
2022-11-20T11:04:11.175Z,15.80
2022-11-20T11:05:14.362Z,16.39
2022-11-20T11:06:11.676Z,16
2022-11-20T11:08:11.050Z,16.10
2022-11-20T11:09:11.187Z,16.5
2022-11-20T11:10:11.300Z,16.29
2022-11-20T11:11:11.174Z,17.39
2022-11-20T11:12:11.247Z,17.20
2022-11-20T11:13:11.405Z,16.89
2022-11-20T11:14:11.480Z,17.29
2022-11-20T11:15:11.416Z,18.29
2022-11-20T11:16:11.303Z,16.20
2022-11-20T11:17:11.743Z,16.5
2022-11-20T11:19:10.988Z,18.10
2022-11-20T11:20:11.366Z,17.39
2022-11-20T11:21:11.242Z,18.5
2022-11-20T11:23:11.457Z,18.60
2022-11-20T11:24:40.560Z,18.39
2022-11-20T11:25:11.753Z,18.10
2022-11-20T11:26:10.937Z,18.39
2022-11-20T11:27:16.477Z,17.39
2022-11-20T11:28:11.298Z,17.29
2022-11-20T11:29:11.232Z,16.60
2022-11-20T11:30:11.578Z,17.10
2022-11-20T11:31:10.884Z,15.69
2022-11-20T11:32:16.226Z,17.29
2022-11-20T11:33:11.101Z,15.89
2022-11-20T11:34:11.110Z,17.20
2022-11-20T11:35:11.356Z,16.89
2022-11-20T11:36:11.641Z,16.60
2022-11-20T11:37:10.734Z,16.89
2022-11-20T11:38:10.709Z,15.89
2022-11-20T11:39:10.821Z,17.70
2022-11-20T11:40:24.675Z,17.20
2022-11-20T11:41:10.963Z,17.60
2022-11-20T11:42:11.053Z,17.20
2022-11-20T11:43:11.251Z,17.89
2022-11-20T11:44:11.106Z,17
2022-11-20T11:45:11.283Z,16
2022-11-20T11:46:11.164Z,18.10
2022-11-20T11:47:11.384Z,17.79
2022-11-20T11:48:11.352Z,18
2022-11-20T11:49:11.274Z,19
2022-11-20T11:50:11.138Z,17.89
2022-11-20T11:51:10.883Z,19
2022-11-20T11:52:11.179Z,17.60
2022-11-20T11:53:11.122Z,17.5
2022-11-20T11:55:11.898Z,18.10
2022-11-20T11:56:11.126Z,17.20
2022-11-20T11:57:11.034Z,17
2022-11-20T11:58:11.256Z,17.39
2022-11-20T11:59:11.150Z,18.10
2022-11-20T12:00:25.881Z,18.29
2022-11-20T12:01:10.922Z,17.20
2022-11-20T12:02:11.134Z,17.29
2022-11-20T12:03:11.665Z,19.20
2022-11-20T12:04:29.711Z,17.89
2022-11-20T12:05:11.788Z,18.20
2022-11-20T12:06:10.786Z,17.60
2022-11-20T12:07:38.875Z,16.60
2022-11-20T12:08:30.483Z,17.70
2022-11-20T12:09:10.741Z,17.29
2022-11-20T12:10:10.831Z,17.20
2022-11-20T12:11:11.029Z,17.70
2022-11-20T12:12:30.267Z,17.60
2022-11-20T12:13:11.621Z,16.60
2022-11-20T12:14:30.793Z,17.29
2022-11-20T12:15:11.036Z,16.29
2022-11-20T12:16:11.373Z,16.89
2022-11-20T12:17:11.475Z,16.39
2022-11-20T12:19:11.186Z,16.60
2022-11-20T12:20:10.932Z,14.60
2022-11-20T12:21:10.806Z,16.20
2022-11-20T12:22:11.066Z,16.10
2022-11-20T12:23:11.154Z,16
2022-11-20T12:25:13.117Z,16.39
2022-11-20T12:26:11.334Z,15.19
2022-11-20T12:27:11.811Z,16.60
2022-11-20T12:29:10.744Z,15.60
2022-11-20T12:30:12.248Z,15.69
2022-11-20T12:31:11.611Z,14.80
2022-11-20T12:32:11.583Z,15.5
2022-11-20T12:33:11.737Z,15.89
2022-11-20T12:34:10.716Z,15.30
2022-11-20T12:35:11.711Z,14.89
2022-11-20T12:36:10.796Z,14.30
2022-11-20T12:37:10.619Z,14.5
2022-11-20T12:38:11.424Z,14.80
2022-11-20T12:39:11.550Z,13.80
2022-11-20T12:40:11.582Z,14.39
2022-11-20T12:41:11.521Z,13.5
2022-11-20T12:42:11.368Z,13.89
2022-11-20T12:43:11.362Z,14.80
2022-11-20T12:44:11.149Z,14.19
2022-11-20T12:45:11.452Z,14
2022-11-20T12:47:10.972Z,12.89
2022-11-20T12:48:10.961Z,14.19
2022-11-20T12:49:11.175Z,13.19
2022-11-20T12:51:15.808Z,13.69
2022-11-20T12:52:10.920Z,14.39
2022-11-20T12:53:10.826Z,14
2022-11-20T12:54:10.597Z,14.39
2022-11-20T12:55:11.671Z,13.30
2022-11-20T12:56:10.729Z,13.80
2022-11-20T12:57:11.387Z,14.80
2022-11-20T12:58:11.382Z,13.19
2022-11-20T12:59:11.607Z,14.10
2022-11-20T13:00:10.880Z,13.30
2022-11-20T13:01:11.321Z,14
2022-11-20T13:02:10.803Z,14.69
2022-11-20T13:03:10.781Z,13.5
2022-11-20T13:04:10.966Z,14.30
2022-11-20T13:05:11.085Z,13.30
2022-11-20T13:06:11.372Z,13.69
2022-11-20T13:07:11.703Z,13.39
2022-11-20T13:08:10.823Z,13.5
2022-11-20T13:10:13.048Z,13.10
2022-11-20T13:11:11.314Z,13.30
2022-11-20T13:12:11.177Z,12.60
2022-11-20T13:13:11.518Z,12.80
2022-11-20T13:14:11.722Z,11.80
2022-11-20T13:15:12.030Z,12.30
2022-11-20T13:16:14.330Z,13
2022-11-20T13:17:11.489Z,12.80
2022-11-20T13:18:11.649Z,12.10
2022-11-20T13:19:11.473Z,14.19
2022-11-20T13:20:11.630Z,12.5
2022-11-20T13:21:11.685Z,12.80
2022-11-20T13:22:11.405Z,13.80
2022-11-20T13:23:11.431Z,12.10
2022-11-20T13:24:11.616Z,13
2022-11-20T13:25:16.216Z,12.60
2022-11-20T13:26:11.355Z,12.80
2022-11-20T13:27:11.314Z,12.30
2022-11-20T13:28:11.419Z,12.60
2022-11-20T13:29:11.579Z,12.69
2022-11-20T13:30:12.014Z,12.60
2022-11-20T13:31:10.835Z,13.10
2022-11-20T13:32:11.264Z,13.39
2022-11-20T13:33:10.933Z,13.89
2022-11-20T13:34:10.871Z,14
2022-11-20T13:35:11.867Z,13.5
2022-11-20T13:36:11.068Z,13
2022-11-20T13:37:10.913Z,13.10
2022-11-20T13:38:11.134Z,13.30
2022-11-20T13:39:11.161Z,12.39
2022-11-20T13:40:11.583Z,13.10
2022-11-20T13:41:11.749Z,12.19
2022-11-20T13:42:10.913Z,12.80
2022-11-20T13:43:10.489Z,12.89
2022-11-20T13:44:11.581Z,11.89
2022-11-20T13:45:11.741Z,12.89
2022-11-20T13:46:10.995Z,12.80
2022-11-20T13:47:11.595Z,13.10
2022-11-20T13:48:10.697Z,13.19
2022-11-20T13:49:11.173Z,12.60
2022-11-20T13:50:11.292Z,12.10
2022-11-20T13:51:11.403Z,12.5
2022-11-20T13:52:11.570Z,12.60
2022-11-20T13:53:11.571Z,11.80
2022-11-20T13:54:11.680Z,12.5
2022-11-20T13:56:10.821Z,12.19
2022-11-20T13:57:11.522Z,11.30
2022-11-20T13:58:11.567Z,11.19
2022-11-20T13:59:14.706Z,11.30
2022-11-20T14:00:11.819Z,11.60
2022-11-20T14:01:11.461Z,11.39
2022-11-20T14:02:10.767Z,12
2022-11-20T14:04:10.656Z,12.10
2022-11-20T14:05:16.413Z,11.89
2022-11-20T14:06:11.172Z,11.39
2022-11-20T14:07:10.903Z,11.60
2022-11-20T14:08:10.974Z,11.5
2022-11-20T14:09:11.421Z,10.80
2022-11-20T14:10:11.659Z,11
2022-11-20T14:11:11.265Z,11.80
2022-11-20T14:12:11.461Z,10.30
2022-11-20T14:13:11.125Z,9.899
2022-11-20T14:14:10.790Z,7.900
2022-11-20T14:15:10.886Z,8
2022-11-20T14:16:11.010Z,6.300
2022-11-20T14:17:24.878Z,5.5
2022-11-20T14:18:10.710Z,5.199
2022-11-20T14:19:11.718Z,4.699
2022-11-20T14:20:10.793Z,4.199
2022-11-20T14:21:24.616Z,3.799
2022-11-20T14:22:10.828Z,3.400
2022-11-20T14:23:10.446Z,3.200
2022-11-20T14:24:11.627Z,2.5
2022-11-20T14:25:11.946Z,2.400
2022-11-20T14:26:10.852Z,2.200
2022-11-20T14:27:10.844Z,2.099
2022-11-20T14:28:11.171Z,2
2022-11-20T14:29:11.030Z,1.799
2022-11-20T14:30:11.032Z,1.700
2022-11-20T14:31:10.824Z,1.5
2022-11-20T14:32:10.851Z,1.600
2022-11-20T14:34:11.015Z,1.5
2022-11-20T14:35:11.186Z,1.700
2022-11-20T14:36:11.297Z,1.5
2022-11-20T14:37:16.345Z,1.600
2022-11-20T14:38:10.586Z,1.299
2022-11-20T14:40:11.393Z,1.5
2022-11-20T14:41:10.764Z,1.299
2022-11-20T14:44:11.586Z,1.600
2022-11-20T14:45:11.587Z,1.5
2022-11-20T14:46:10.838Z,1.299
2022-11-20T14:47:11.577Z,1.5
2022-11-20T14:49:11.659Z,1.700
2022-11-20T14:50:10.876Z,2
2022-11-20T14:51:11.087Z,2.099
2022-11-20T14:52:11.270Z,1.799
2022-11-20T14:53:11.090Z,1.700
2022-11-20T14:54:11.215Z,1.5
2022-11-20T14:57:11.351Z,1.100
2022-11-20T14:58:11.455Z,1.399
2022-11-20T14:59:11.422Z,1.200
2022-11-20T15:00:11.970Z,1.399
2022-11-20T15:01:11.160Z,1.299
2022-11-20T15:02:11.163Z,1.5
2022-11-20T15:03:11.185Z,1.399
2022-11-20T15:04:11.649Z,1.299
2022-11-20T15:05:12.033Z,1.200
2022-11-20T15:06:11.241Z,1.299
2022-11-20T15:08:10.631Z,1.399
2022-11-20T15:09:10.849Z,1.5
2022-11-20T15:10:11.355Z,1.200
2022-11-20T15:11:11.480Z,1.399
2022-11-20T15:17:11.458Z,1.200
2022-11-20T15:19:10.923Z,1.100
2022-11-20T15:20:11.322Z,1.299
2022-11-20T15:21:11.430Z,1.399
2022-11-20T15:22:11.751Z,1.200
2022-11-20T15:23:11.007Z,1.700
2022-11-20T15:24:11.186Z,1.600
2022-11-20T15:25:12.000Z,1.399
2022-11-20T15:26:15.456Z,2.200
2022-11-20T15:27:11.186Z,2.099
2022-11-20T15:28:11.781Z,1.700
2022-11-20T15:29:11.065Z,1.799
2022-11-20T15:30:11.232Z,1.700
2022-11-20T15:31:11.843Z,2.099
2022-11-20T15:32:13.596Z,1.899
2022-11-20T15:33:11.039Z,1.799
2022-11-20T15:34:11.145Z,2.400
2022-11-20T15:35:11.542Z,3
2022-11-20T15:36:11.609Z,2.5
2022-11-20T15:37:11.521Z,2.400
2022-11-20T15:38:11.818Z,2.099
2022-11-20T15:39:11.066Z,2.299
2022-11-20T15:41:11.231Z,2.200
2022-11-20T15:42:11.428Z,2.400
2022-11-20T15:43:13.688Z,2.599
2022-11-20T15:44:11.107Z,2.299
2022-11-20T15:45:11.297Z,2.400
2022-11-20T15:48:10.816Z,2.299
2022-11-20T15:49:10.768Z,2.200
2022-11-20T15:50:11.085Z,2.400
2022-11-20T15:52:11.213Z,2.200
2022-11-20T15:53:11.466Z,2
2022-11-20T15:54:11.640Z,2.099
2022-11-20T15:55:11.416Z,1.799
2022-11-20T15:56:11.702Z,2.099
2022-11-20T15:57:11.025Z,1.899
2022-11-20T15:59:10.931Z,2.099
2022-11-20T16:01:11.782Z,1.899
2022-11-20T16:02:15.833Z,1.799
2022-11-20T16:03:11.058Z,2.099
2022-11-20T16:04:11.233Z,2.400
2022-11-20T16:05:11.414Z,2.299
2022-11-20T16:06:11.886Z,2.400
2022-11-20T16:08:12.148Z,3.200
2022-11-20T16:09:11.389Z,3.299
2022-11-20T16:10:11.916Z,2.599
2022-11-20T16:11:11.294Z,2.700
2022-11-20T16:12:11.739Z,3.200
2022-11-20T16:13:11.478Z,2.799
2022-11-20T16:14:11.334Z,2.5
2022-11-20T16:15:13.752Z,2.599
2022-11-20T16:16:11.398Z,2.400
2022-11-20T16:19:11.743Z,2.099
2022-11-20T16:20:11.497Z,1.899
2022-11-20T16:21:12.179Z,2
2022-11-20T16:22:11.939Z,1.899
2022-11-20T16:25:12.131Z,2.299
2022-11-20T16:26:11.753Z,1.799
2022-11-20T16:27:10.082Z,1.700
2022-11-20T16:28:17.403Z,1.600
2022-11-20T16:29:11.244Z,1.700
2022-11-20T16:30:17.028Z,1.799
2022-11-20T16:32:16.537Z,1.700
2022-11-20T16:34:12.745Z,1.5
2022-11-20T16:36:11.032Z,1.600
2022-11-20T16:37:11.548Z,1.799
2022-11-20T16:38:11.373Z,1.899
2022-11-20T16:39:11.884Z,1.700
2022-11-20T16:40:19.960Z,1.799
2022-11-20T16:43:11.458Z,1.899
2022-11-20T16:44:25.466Z,1.5
2022-11-20T16:45:11.237Z,1.700
2022-11-20T16:46:11.458Z,1.799
2022-11-20T16:47:11.397Z,1.600
2022-11-20T16:49:11.299Z,1.399
2022-11-20T16:51:10.930Z,1.5
2022-11-20T16:52:11.528Z,1.399
2022-11-20T16:53:12.114Z,1.5
2022-11-20T16:54:14.098Z,1.200
2022-11-20T16:55:12.049Z,1.5
2022-11-20T16:56:30.482Z,1.700
2022-11-20T16:57:11.777Z,1.899
2022-11-20T16:58:10.909Z,1.799
2022-11-20T16:59:10.860Z,1.899
2022-11-20T17:00:11.663Z,1.5
2022-11-20T17:01:11.353Z,1.700
2022-11-20T17:02:30.814Z,1.600
2022-11-20T17:03:10.973Z,2.099
2022-11-20T17:04:11.433Z,1.399
2022-11-20T17:05:11.972Z,1.5
2022-11-20T17:06:11.154Z,1.299
2022-11-20T17:07:11.127Z,1.5
2022-11-20T17:08:10.920Z,1.100
2022-11-20T17:09:10.840Z,1.399
2022-11-20T17:10:11.266Z,1.299
2022-11-20T17:12:11.281Z,1.399
2022-11-20T17:16:11.675Z,1.600
2022-11-20T17:17:11.242Z,1.5
2022-11-20T17:18:11.118Z,1.299
2022-11-20T17:19:11.553Z,1.399
2022-11-20T17:20:11.412Z,1.200
2022-11-20T17:21:11.199Z,1.299
2022-11-20T17:22:11.895Z,1
2022-11-20T17:25:11.640Z,0.899
2022-11-20T17:28:11.036Z,0.800
2022-11-20T17:29:11.618Z,0.899
2022-11-20T17:31:11.660Z,1
2022-11-20T17:32:11.278Z,0.899
2022-11-20T17:33:11.303Z,0.300
2022-11-20T17:34:11.647Z,0.5
2022-11-20T17:35:11.201Z,1
2022-11-20T17:36:10.981Z,0.600
2022-11-20T17:37:11.196Z,0.699
2022-11-20T17:38:11.636Z,0.600
2022-11-20T17:39:11.010Z,0.699
2022-11-20T17:40:11.817Z,0.600
2022-11-20T17:41:11.244Z,0.5
2022-11-20T17:42:11.376Z,0.600
2022-11-20T17:43:12.218Z,0.400
2022-11-20T17:44:11.206Z,0.300
2022-11-20T17:45:11.979Z,0.600
2022-11-20T17:46:11.718Z,0.400
2022-11-20T17:48:11.132Z,0.600
2022-11-20T17:49:11.474Z,0.5
2022-11-20T17:50:11.475Z,0.300
2022-11-20T17:52:11.467Z,0.600
2022-11-20T17:53:11.062Z,0.5
2022-11-20T17:54:11.386Z,0.400
2022-11-20T17:55:11.846Z,0.600
2022-11-20T17:57:11.692Z,0.5
2022-11-20T17:58:11.298Z,0.400
2022-11-20T17:59:11.907Z,0.600
2022-11-20T18:00:11.970Z,0.5
2022-11-20T18:01:11.634Z,0.600
2022-11-20T18:02:11.243Z,0.699
2022-11-20T18:03:11.396Z,1
2022-11-20T18:04:11.607Z,0.800
2022-11-20T18:05:10.789Z,1.100
2022-11-20T18:09:11.698Z,1
2022-11-20T18:10:10.961Z,1.100
2022-11-20T18:11:11.049Z,1.200
2022-11-20T18:12:11.223Z,1.100
2022-11-20T18:14:11.704Z,1.5
2022-11-20T18:15:12.163Z,1.700
2022-11-20T18:16:11.550Z,1.5
2022-11-20T18:17:11.496Z,1.700
2022-11-20T18:18:11.822Z,1.600
2022-11-20T18:19:11.255Z,1.799
2022-11-20T18:20:28.746Z,1.899
2022-11-20T18:22:10.780Z,1.799
2022-11-20T18:23:11.313Z,1.700
2022-11-20T18:24:11.450Z,1.600
2022-11-20T18:26:10.863Z,1.799
2022-11-20T18:28:11.172Z,1.600
2022-11-20T18:29:11.647Z,2.099
2022-11-20T18:30:11.797Z,1.899
2022-11-20T18:31:11.058Z,2.299
2022-11-20T18:34:11.531Z,2
2022-11-20T18:35:11.729Z,2.599
2022-11-20T18:37:11.520Z,2.5
2022-11-20T18:39:11.861Z,2.900
2022-11-20T18:40:11.142Z,3
2022-11-20T18:41:11.422Z,3.5
2022-11-20T18:43:11.339Z,2.599
2022-11-20T18:44:11.581Z,3.400
2022-11-20T18:45:11.649Z,3.900
2022-11-20T18:46:10.780Z,3.799
2022-11-20T18:47:14.477Z,3.099
2022-11-20T18:48:11.185Z,3.299
2022-11-20T18:49:11.189Z,4.099
2022-11-20T18:50:11.533Z,3.900
2022-11-20T18:51:10.609Z,4.199
2022-11-20T18:52:10.812Z,3.900
2022-11-20T18:53:15.889Z,4.400
2022-11-20T18:54:10.665Z,3.900
2022-11-20T18:55:11.695Z,3.200
2022-11-20T18:56:10.957Z,4.400
2022-11-20T18:57:11.046Z,4.099
2022-11-20T18:58:11.042Z,3.799
2022-11-20T18:59:11.313Z,3.599
2022-11-20T19:00:10.984Z,3.5
2022-11-20T19:01:11.785Z,3
2022-11-20T19:02:11.161Z,3.900
2022-11-20T19:03:19.208Z,3.799
2022-11-20T19:04:11.124Z,3.599
2022-11-20T19:05:11.909Z,2.799
2022-11-20T19:06:11.152Z,3.900
2022-11-20T19:07:11.453Z,3.599
2022-11-20T19:08:10.878Z,3.299
2022-11-20T19:09:11.140Z,4.300
2022-11-20T19:10:11.567Z,3.900
2022-11-20T19:11:11.897Z,3.799
2022-11-20T19:12:11.462Z,3.5
2022-11-20T19:13:11.479Z,3.099
2022-11-20T19:14:11.566Z,3.599
2022-11-20T19:15:10.809Z,3.700
2022-11-20T19:16:11.194Z,2.700
2022-11-20T19:17:11.666Z,3.099
2022-11-20T19:18:10.844Z,3.299
2022-11-20T19:19:11.094Z,3.200
2022-11-20T19:20:11.349Z,3.400
2022-11-20T19:21:11.371Z,3.099
2022-11-20T19:22:11.366Z,3.200
2022-11-20T19:23:30.632Z,3.599
2022-11-20T19:25:35.196Z,3
2022-11-20T19:26:10.788Z,3.299
2022-11-20T19:27:30.219Z,3
2022-11-20T19:28:10.902Z,4.099
2022-11-20T19:29:11.254Z,3
2022-11-20T19:30:11.607Z,2.700
2022-11-20T19:31:10.940Z,3.200
2022-11-20T19:32:10.923Z,2.799
2022-11-20T19:33:11.233Z,3.5
2022-11-20T19:34:11.675Z,2.599
2022-11-20T19:35:11.069Z,2.900
2022-11-20T19:36:11.431Z,3
2022-11-20T19:37:10.646Z,3.299
2022-11-20T19:38:10.727Z,2.700
2022-11-20T19:39:10.879Z,3.200
2022-11-20T19:40:11.064Z,2.799
2022-11-20T19:41:11.355Z,3.200
2022-11-20T19:42:11.406Z,3
2022-11-20T19:43:11.566Z,2.700
2022-11-20T19:44:10.894Z,3
2022-11-20T19:45:11.369Z,2.900
2022-11-20T19:46:10.961Z,3.299
2022-11-20T19:47:14.393Z,3
2022-11-20T19:48:10.775Z,3.200
2022-11-20T19:49:10.785Z,2.900
2022-11-20T19:50:11.156Z,3
2022-11-20T19:51:11.592Z,2.900
2022-11-20T19:52:10.879Z,4
2022-11-20T19:53:11.072Z,2.900
2022-11-20T19:54:11.204Z,2.799
2022-11-20T19:55:12.055Z,2.900
2022-11-20T19:56:11.152Z,3.099
2022-11-20T19:57:11.557Z,2.799
2022-11-20T19:58:10.752Z,3.099
2022-11-20T20:00:12.425Z,3
2022-11-20T20:01:10.832Z,2.900
2022-11-20T20:02:11.431Z,3
2022-11-20T20:04:10.911Z,2.700
2022-11-20T20:06:11.166Z,2.799
2022-11-20T20:09:11.548Z,2.900
2022-11-20T20:11:11.234Z,2.299
2022-11-20T20:12:11.800Z,2.5
2022-11-20T20:13:11.264Z,2.599
2022-11-20T20:14:11.545Z,2.400
2022-11-20T20:15:10.636Z,2.700
2022-11-20T20:16:10.832Z,3.099
2022-11-20T20:17:11.269Z,2.900
2022-11-20T20:18:11.466Z,2.599
2022-11-20T20:19:11.862Z,3
2022-11-20T20:20:11.078Z,2.700
2022-11-20T20:21:11.268Z,2.5
2022-11-20T20:22:11.441Z,2.799
2022-11-20T20:23:11.499Z,2.700
2022-11-20T20:24:10.784Z,3.200
2022-11-20T20:25:10.896Z,2.700
2022-11-20T20:26:10.889Z,2.5
2022-11-20T20:27:10.884Z,2.400
2022-11-20T20:28:10.988Z,3.200
2022-11-20T20:29:10.715Z,2.400
2022-11-20T20:30:10.741Z,2.5
2022-11-20T20:32:11.121Z,2.599
2022-11-20T20:33:11.676Z,2.5
2022-11-20T20:35:11.739Z,2.799
2022-11-20T20:36:10.833Z,2.900
2022-11-20T20:37:10.871Z,2.700
2022-11-20T20:38:10.817Z,2.900
2022-11-20T20:39:10.822Z,2.599
2022-11-20T20:40:14.886Z,2.5
2022-11-20T20:41:10.947Z,2.400
2022-11-20T20:42:10.751Z,2.599
2022-11-20T20:43:10.717Z,2.299
2022-11-20T20:44:11.007Z,2.599
2022-11-20T20:45:11.559Z,2.400
2022-11-20T20:46:11.365Z,2.5
2022-11-20T20:47:11.374Z,2.099
2022-11-20T20:48:11.515Z,2.5
2022-11-20T20:49:11.587Z,2.400
2022-11-20T20:51:10.896Z,2.299
2022-11-20T20:52:11.088Z,2.5
2022-11-20T20:54:11.285Z,2.900
2022-11-20T20:55:11.544Z,2.299
2022-11-20T20:56:11.619Z,2.400
2022-11-20T20:58:11.095Z,2.299
2022-11-20T20:59:10.996Z,2.200
2022-11-20T21:00:11.322Z,2
2022-11-20T21:01:10.735Z,2.299
2022-11-20T21:02:10.802Z,2.799
2022-11-20T21:03:10.753Z,2.599
2022-11-20T21:04:11.566Z,2.799
2022-11-20T21:05:10.877Z,2.700
2022-11-20T21:06:11.171Z,2.5
2022-11-20T21:07:11.362Z,2.799
2022-11-20T21:08:10.934Z,2.599
2022-11-20T21:09:11.161Z,2.5
2022-11-20T21:10:11.244Z,3
2022-11-20T21:11:11.321Z,2.799
2022-11-20T21:12:11.568Z,2.599
2022-11-20T21:13:11.437Z,2.900
2022-11-20T21:14:16.248Z,3
2022-11-20T21:15:11.774Z,2.799
2022-11-20T21:17:15.092Z,2.700
2022-11-20T21:18:11.469Z,3.299
2022-11-20T21:19:11.348Z,2.700
2022-11-20T21:20:11.331Z,2.599
2022-11-20T21:23:10.871Z,2.5
2022-11-20T21:24:10.888Z,2.599
2022-11-20T21:27:11.567Z,2.799
2022-11-20T21:28:15.618Z,3.099
2022-11-20T21:29:11.308Z,2.700
2022-11-20T21:30:11.579Z,2.5
2022-11-20T21:31:11.437Z,2.599
2022-11-20T21:32:11.342Z,2.200
2022-11-20T21:33:11.378Z,3.099
2022-11-20T21:34:11.312Z,2.599
2022-11-20T21:35:11.353Z,2.5
2022-11-20T21:38:11.260Z,2.700
2022-11-20T21:41:11.391Z,2.299
2022-11-20T21:43:11.448Z,2.599
2022-11-20T21:45:11.403Z,2.799
2022-11-20T21:46:11.220Z,2.5
2022-11-20T21:47:11.250Z,2.599
2022-11-20T21:48:11.186Z,3
2022-11-20T21:50:11.368Z,2.799
2022-11-20T21:51:11.117Z,3.5
2022-11-20T21:52:11.157Z,2.900
2022-11-20T21:53:11.014Z,3.099
2022-11-20T21:54:11.054Z,2.799
2022-11-20T21:55:10.881Z,3
2022-11-20T21:56:10.788Z,3.200
2022-11-20T21:57:11.278Z,2.900
2022-11-20T21:58:11.241Z,3
2022-11-20T21:59:11.630Z,2.799
2022-11-20T22:00:31.425Z,3.099
2022-11-20T22:02:10.758Z,2.700
2022-11-20T22:03:11.227Z,3.400
2022-11-20T22:04:11.119Z,2.900
2022-11-20T22:05:11.261Z,3.299
2022-11-20T22:07:11.238Z,3.700
2022-11-20T22:08:11.091Z,3.099
2022-11-20T22:09:11.296Z,3
2022-11-20T22:10:15.625Z,3.799
2022-11-20T22:11:11.199Z,3.5
2022-11-20T22:12:11.312Z,3.099
2022-11-20T22:13:11.335Z,3.200
2022-11-20T22:14:11.236Z,3.299
2022-11-20T22:15:11.571Z,3.700
2022-11-20T22:16:10.909Z,3.5
2022-11-20T22:17:11.118Z,3.700
2022-11-20T22:21:11.263Z,3.700
2022-11-20T22:22:11.142Z,3.200
2022-11-20T22:23:10.849Z,3.799
2022-11-20T22:24:10.791Z,3.5
2022-11-20T22:25:11.521Z,3.599
2022-11-20T22:26:11.505Z,3.5
2022-11-20T22:32:19.455Z,3.599
2022-11-20T22:33:13.689Z,3.200
2022-11-20T22:34:11.283Z,4
2022-11-20T22:35:11.304Z,3.700
2022-11-20T22:36:11.178Z,3.400
2022-11-20T22:37:10.849Z,3.900
2022-11-20T22:38:10.530Z,3.400
2022-11-20T22:39:11.517Z,4
2022-11-20T22:40:11.515Z,3.5
2022-11-20T22:41:11.300Z,4.099
2022-11-20T22:42:11.469Z,4.199
2022-11-20T22:43:11.082Z,3.900
2022-11-20T22:44:11.081Z,3.400
2022-11-20T22:45:11.165Z,3.299
2022-11-20T22:46:11.065Z,3.900
2022-11-20T22:47:11.617Z,4
2022-11-20T22:48:11.622Z,3.799
2022-11-20T22:49:11.704Z,4
2022-11-20T22:50:10.513Z,3.700
2022-11-20T22:51:11.388Z,3.799
2022-11-20T22:52:10.968Z,4.400
2022-11-20T22:53:10.905Z,3.5
2022-11-20T22:54:10.798Z,4.599
2022-11-20T22:55:15.071Z,3.799
2022-11-20T22:56:11.311Z,4.099
2022-11-20T22:57:11.008Z,3.599
2022-11-20T22:58:10.594Z,3.900
2022-11-20T22:59:11.138Z,3.700
2022-11-20T23:00:11.664Z,4.300
2022-11-20T23:01:10.441Z,3.900
2022-11-20T23:03:11.111Z,3.700
2022-11-20T23:04:11.033Z,4.300
2022-11-20T23:05:11.094Z,3.900
2022-11-20T23:07:11.283Z,3.200
2022-11-20T23:09:11.024Z,3.799
2022-11-20T23:10:11.017Z,3
2022-11-20T23:11:10.804Z,3.5
2022-11-20T23:12:10.754Z,3.099
2022-11-20T23:13:11.555Z,3.5
2022-11-20T23:14:11.332Z,3.400
2022-11-20T23:15:11.636Z,3.5
2022-11-20T23:16:11.471Z,3.400
2022-11-20T23:17:11.234Z,3.200
2022-11-20T23:18:11.244Z,3.400
2022-11-20T23:19:11.080Z,3.5
2022-11-20T23:20:10.774Z,3.299
2022-11-20T23:21:10.516Z,3.5
2022-11-20T23:22:11.333Z,3.799
2022-11-20T23:23:11.080Z,3.700
2022-11-20T23:24:10.887Z,3.5
2022-11-20T23:25:10.609Z,3.200
2022-11-20T23:26:11.146Z,3.599
2022-11-20T23:27:11.085Z,3.099
2022-11-20T23:28:11.530Z,3.599
2022-11-20T23:30:11.569Z,3.700
2022-11-20T23:32:11.632Z,4
2022-11-20T23:33:11.717Z,3.599
2022-11-20T23:34:10.583Z,3.799
2022-11-20T23:35:11.415Z,3.599
2022-11-20T23:36:11.269Z,3.900
2022-11-20T23:37:11.011Z,3.700
2022-11-20T23:38:10.877Z,3.400
2022-11-20T23:39:10.718Z,3.700
2022-11-20T23:40:11.803Z,3.599
2022-11-20T23:41:11.285Z,3.900
2022-11-20T23:42:11.060Z,4.5
2022-11-20T23:43:10.876Z,3.700
2022-11-20T23:44:11.124Z,3.900
2022-11-20T23:45:10.886Z,3.5
2022-11-20T23:46:15.172Z,3.900
2022-11-20T23:47:11.165Z,3.5
2022-11-20T23:48:11.081Z,3.599
2022-11-20T23:49:10.905Z,3.5
2022-11-20T23:50:10.769Z,3.400
2022-11-20T23:51:10.729Z,3.599
2022-11-20T23:52:11.169Z,3.799
2022-11-20T23:53:11.056Z,3.200
2022-11-20T23:54:10.851Z,4
2022-11-20T23:55:11.450Z,3.400
2022-11-20T23:56:11.276Z,3.799
2022-11-20T23:57:11.289Z,3.700
2022-11-20T23:58:11.070Z,3.400
2022-11-20T23:59:11.050Z,3.599
